createdAt,value
2018-05-27T00:02:00.379Z,101233
2018-05-27T00:07:04.231Z,101228
2018-05-27T00:12:07.312Z,101228
2018-05-27T00:17:10.396Z,101222
2018-05-27T00:22:14.245Z,101219
2018-05-27T00:27:17.729Z,101209
2018-05-27T00:32:23.280Z,101212
2018-05-27T00:37:26.376Z,101210
2018-05-27T00:42:29.857Z,101210
2018-05-27T00:47:34.292Z,101214
2018-05-27T00:52:38.517Z,101211
2018-05-27T00:57:42.960Z,101200
2018-05-27T01:02:46.049Z,101204
2018-05-27T01:07:49.133Z,101203
2018-05-27T01:12:53.569Z,101212
2018-05-27T01:17:56.661Z,101218
2018-05-27T01:23:00.513Z,101218
2018-05-27T01:28:04.365Z,101208
2018-05-27T01:33:07.446Z,101202
2018-05-27T01:43:20.084Z,101193
2018-05-27T01:48:23.938Z,101198
2018-05-27T01:53:27.024Z,101196
2018-05-27T01:58:31.463Z,101193
2018-05-27T02:03:34.944Z,101190
2018-05-27T02:08:39.175Z,101186
2018-05-27T02:13:43.017Z,101182
2018-05-27T02:18:47.455Z,101177
2018-05-27T02:23:50.944Z,101175
2018-05-27T02:28:54.032Z,101173
2018-05-27T02:33:57.121Z,101173
2018-05-27T02:39:01.715Z,101182
2018-05-27T02:44:06.153Z,101175
2018-05-27T02:49:10.582Z,101174
2018-05-27T02:54:13.679Z,101170
2018-05-27T02:59:16.758Z,101162
2018-05-27T03:04:20.610Z,101164
2018-05-27T03:09:24.471Z,101157
2018-05-27T03:14:28.906Z,101149
2018-05-27T03:19:32.394Z,101140
2018-05-27T03:24:36.237Z,101151
2018-05-27T03:29:40.467Z,101155
2018-05-27T03:34:43.553Z,101154
2018-05-27T03:39:47.408Z,101156
2018-05-27T03:44:50.497Z,101156
2018-05-27T03:49:53.590Z,101151
2018-05-27T03:54:57.437Z,101143
2018-05-27T04:00:00.922Z,101148
2018-05-27T04:05:22.828Z,101159
2018-05-27T04:10:27.268Z,101161
2018-05-27T04:15:31.716Z,101168
2018-05-27T04:20:35.562Z,101175
2018-05-27T04:25:40.900Z,101176
2018-05-27T04:30:44.389Z,101174
2018-05-27T04:35:47.471Z,101172
2018-05-27T04:40:50.550Z,101168
2018-05-27T04:45:54.981Z,101165
2018-05-27T04:50:58.833Z,101165
2018-05-27T04:56:01.930Z,101162
2018-05-27T05:01:05.017Z,101166
2018-05-27T05:06:09.448Z,101176
2018-05-27T05:11:14.058Z,101180
2018-05-27T05:16:17.150Z,101186
2018-05-27T05:21:21.377Z,101186
2018-05-27T05:26:24.463Z,101186
2018-05-27T05:31:28.897Z,101194
2018-05-27T05:36:32.379Z,101193
2018-05-27T05:41:36.979Z,101192
2018-05-27T05:46:40.457Z,101191
2018-05-27T05:51:44.313Z,101195
2018-05-27T05:56:48.168Z,101189
2018-05-27T06:01:52.598Z,101192
2018-05-27T06:06:55.686Z,101196
2018-05-27T06:11:59.174Z,101185
2018-05-27T06:17:03.630Z,101192
2018-05-27T06:22:07.126Z,101187
2018-05-27T06:27:10.977Z,101189
2018-05-27T06:32:15.210Z,101199
2018-05-27T06:37:19.062Z,101199
2018-05-27T06:42:22.157Z,101200
2018-05-27T06:47:25.663Z,101198
2018-05-27T06:52:28.767Z,101206
2018-05-27T06:57:32.274Z,101204
2018-05-27T07:02:35.373Z,101204
2018-05-27T07:07:39.817Z,101210
2018-05-27T07:12:43.318Z,101202
2018-05-27T07:17:47.557Z,101203
2018-05-27T07:22:51.427Z,101197
2018-05-27T07:27:54.509Z,101194
2018-05-27T07:32:58.368Z,101188
2018-05-27T07:38:01.453Z,101183
2018-05-27T07:43:05.910Z,101183
2018-05-27T07:48:09.761Z,101178
2018-05-27T07:53:12.856Z,101168
2018-05-27T07:58:17.331Z,101165
2018-05-27T08:03:20.392Z,101158
2018-05-27T08:08:24.836Z,101157
2018-05-27T08:13:27.978Z,101156
2018-05-27T08:18:31.235Z,101161
2018-05-27T08:23:35.830Z,101164
2018-05-27T08:28:40.090Z,101175
2018-05-27T08:33:44.678Z,101179
2018-05-27T08:38:47.769Z,101180
2018-05-27T08:43:50.902Z,101184
2018-05-27T08:48:55.379Z,101190
2018-05-27T08:53:58.843Z,101187
2018-05-27T08:59:03.275Z,101173
2018-05-27T09:04:06.372Z,101182
2018-05-27T09:09:09.469Z,101187
2018-05-27T09:14:13.697Z,101173
2018-05-27T09:19:16.791Z,101166
2018-05-27T09:24:20.275Z,101160
2018-05-27T09:29:24.137Z,101159
2018-05-27T09:34:27.986Z,101153
2018-05-27T09:39:31.833Z,101152
2018-05-27T09:44:34.926Z,101143
2018-05-27T09:49:38.014Z,101146
2018-05-27T09:54:41.858Z,101130
2018-05-27T09:59:44.950Z,101126
2018-05-27T10:04:48.789Z,101114
2018-05-27T10:09:51.877Z,101100
2018-05-27T10:14:55.367Z,101103
2018-05-27T10:19:59.345Z,101111
2018-05-27T10:25:02.434Z,101109
2018-05-27T10:30:05.514Z,101117
2018-05-27T10:35:09.749Z,101119
2018-05-27T10:40:12.879Z,101121
2018-05-27T10:45:15.963Z,101118
2018-05-27T10:50:22.937Z,101123
2018-05-27T10:55:26.026Z,101122
2018-05-27T11:00:30.245Z,101129
2018-05-27T11:05:33.329Z,101137
2018-05-27T11:10:38.872Z,101139
2018-05-27T11:15:43.070Z,101123
2018-05-27T11:20:47.685Z,101123
2018-05-27T11:25:51.152Z,101118
2018-05-27T11:30:55.371Z,101117
2018-05-27T11:35:58.494Z,101111
2018-05-27T11:41:02.337Z,101112
2018-05-27T11:46:05.414Z,101117
2018-05-27T11:51:08.506Z,101122
2018-05-27T11:56:12.374Z,101123
2018-05-27T12:01:15.450Z,101122
2018-05-27T12:06:18.927Z,101107
2018-05-27T12:11:22.414Z,101111
2018-05-27T12:16:26.836Z,101121
2018-05-27T12:21:30.314Z,101115
2018-05-27T12:26:33.399Z,101121
2018-05-27T12:31:37.828Z,101116
2018-05-27T12:36:42.413Z,101110
2018-05-27T12:41:47.006Z,101098
2018-05-27T12:46:50.494Z,101091
2018-05-27T12:51:55.093Z,101077
2018-05-27T12:56:59.556Z,101053
2018-05-27T13:02:02.995Z,101021
2018-05-27T13:07:06.488Z,100997
2018-05-27T13:12:09.568Z,100998
2018-05-27T13:17:13.813Z,101000
2018-05-27T13:22:18.401Z,101017
2018-05-27T13:27:21.884Z,101016
2018-05-27T13:32:24.973Z,101022
2018-05-27T13:37:28.904Z,101022
2018-05-27T13:42:32.787Z,101010
2018-05-27T13:47:35.874Z,101001
2018-05-27T13:52:38.974Z,101003
2018-05-27T13:57:43.397Z,100997
2018-05-27T14:02:47.825Z,100994
2018-05-27T14:07:52.257Z,100990
2018-05-27T14:12:56.103Z,100991
2018-05-27T14:18:00.698Z,100974
2018-05-27T14:23:05.331Z,100976
2018-05-27T14:28:09.545Z,100970
2018-05-27T14:33:13.995Z,100970
2018-05-27T14:38:17.829Z,100964
2018-05-27T14:43:22.047Z,100961
2018-05-27T14:48:25.130Z,100960
2018-05-27T14:53:29.726Z,100953
2018-05-27T14:58:34.149Z,100959
2018-05-27T15:03:37.255Z,100965
2018-05-27T15:08:41.688Z,100976
2018-05-27T15:13:45.164Z,100976
2018-05-27T15:18:49.760Z,100978
2018-05-27T15:23:53.242Z,100988
2018-05-27T15:28:57.831Z,101001
2018-05-27T15:34:02.263Z,101015
2018-05-27T15:39:06.063Z,101026
2018-05-27T15:44:10.281Z,101027
2018-05-27T15:49:14.710Z,101026
2018-05-27T15:54:17.797Z,101026
2018-05-27T15:59:21.636Z,101024
2018-05-27T16:04:24.727Z,101025
2018-05-27T16:09:27.813Z,101017
2018-05-27T16:14:30.890Z,101021
2018-05-27T16:19:35.101Z,101021
2018-05-27T16:24:38.193Z,101018
2018-05-27T16:29:41.268Z,101006
2018-05-27T16:34:45.490Z,101011
2018-05-27T16:39:48.852Z,101015
2018-05-27T16:44:53.289Z,101002
2018-05-27T16:49:56.780Z,100995
2018-05-27T16:55:00.994Z,100983
2018-05-27T17:00:05.048Z,100968
2018-05-27T17:05:09.269Z,100952
2018-05-27T17:10:13.485Z,100954
2018-05-27T17:15:17.929Z,100946
2018-05-27T17:20:21.015Z,100948
2018-05-27T17:25:24.884Z,101002
2018-05-27T17:30:29.334Z,101007
2018-05-27T17:35:33.191Z,101002
2018-05-27T17:40:36.683Z,100995
2018-05-27T17:45:39.787Z,101000
2018-05-27T17:50:44.018Z,101015
2018-05-27T17:55:48.284Z,101016
2018-05-27T18:00:51.371Z,101007
2018-05-27T18:05:55.804Z,101025
2018-05-27T18:10:59.650Z,101058
2018-05-27T18:16:04.247Z,101066
2018-05-27T18:21:09.430Z,101067
2018-05-27T18:26:12.908Z,101073
2018-05-27T18:31:15.994Z,101063
2018-05-27T18:36:19.849Z,101056
2018-05-27T18:41:24.088Z,101052
2018-05-27T18:46:28.521Z,101053
2018-05-27T18:51:32.034Z,101067
2018-05-27T18:56:36.465Z,101072
2018-05-27T19:01:41.066Z,101078
2018-05-27T19:06:45.502Z,101076
2018-05-27T19:11:48.997Z,101069
2018-05-27T19:16:53.437Z,101077
2018-05-27T19:21:56.918Z,101088
2018-05-27T19:27:01.516Z,101088
2018-05-27T19:32:06.157Z,101091
2018-05-27T19:37:11.153Z,101084
2018-05-27T19:42:14.311Z,101087
2018-05-27T19:47:17.370Z,101088
2018-05-27T19:52:20.490Z,101101
2018-05-27T19:57:26.065Z,101107
2018-05-27T20:02:30.508Z,101113
2018-05-27T20:07:34.373Z,101112
2018-05-27T20:12:38.226Z,101114
2018-05-27T20:17:42.833Z,101116
2018-05-27T20:22:46.333Z,101100
2018-05-27T20:27:50.954Z,101104
2018-05-27T20:32:54.441Z,101093
2018-05-27T20:37:58.305Z,101085
2018-05-27T20:43:02.789Z,101073
2018-05-27T20:48:07.380Z,101057
2018-05-27T20:53:10.473Z,101044
2018-05-27T20:58:13.566Z,101035
2018-05-27T21:03:16.657Z,101031
2018-05-27T21:08:20.529Z,101022
2018-05-27T21:13:25.018Z,101043
2018-05-27T21:18:28.874Z,101050
2018-05-27T21:23:31.975Z,101042
2018-05-27T21:28:36.202Z,101038
2018-05-27T21:33:39.774Z,101053
2018-05-27T21:38:44.194Z,101064
2018-05-27T21:43:48.410Z,101067
2018-05-27T21:48:53.018Z,101059
2018-05-27T21:53:56.094Z,101063
2018-05-27T21:59:00.682Z,101071
2018-05-27T22:04:05.322Z,101085
2018-05-27T22:09:09.154Z,101098
2018-05-27T22:14:12.243Z,101112
2018-05-27T22:19:15.330Z,101101
2018-05-27T22:24:19.757Z,101098
2018-05-27T22:29:22.842Z,101099
2018-05-27T22:34:25.921Z,101100
2018-05-27T22:39:29.023Z,101105
2018-05-27T22:44:32.497Z,101103
2018-05-27T22:49:36.926Z,101111
2018-05-27T22:54:40.777Z,101111
2018-05-27T22:59:45.209Z,101110
2018-05-27T23:04:49.423Z,101119
2018-05-27T23:09:53.640Z,101123
2018-05-27T23:14:58.665Z,101106
2018-05-27T23:20:02.885Z,101114
2018-05-27T23:25:05.965Z,101121
2018-05-27T23:30:09.058Z,101108
2018-05-27T23:35:12.896Z,101100
2018-05-27T23:40:15.973Z,101093
2018-05-27T23:45:19.455Z,101090
2018-05-27T23:50:22.538Z,101100
2018-05-27T23:55:26.017Z,101096
